This is the latest recevied weather packets stored in our database for station/object SLG. If no packets are shown the sender has not sent any weather packets the latest 10 day(s).
| Time | Temp. | Humidity | Pressure | Rain* | Wind** | Luminosity | Snow |
|---|---|---|---|---|---|---|---|
| 1777725131 | 26.67° C | 23% | 1017.6 hPa | 0 mm | - | - | - |
| 1777723330 | 27.78° C | 23% | 1018.2 hPa | 0 mm | - | - | - |
| 1777721531 | 27.22° C | 24% | 1018.6 hPa | 0 mm | - | - | - |
| 1777719730 | 25.56° C | 26% | 1018.9 hPa | 0 mm | - | - | - |
| 1777717930 | 24.44° C | 28% | 1019.2 hPa | 0 mm | - | - | - |
| 1777716131 | 23.89° C | 32% | 1019.6 hPa | 0 mm | - | - | - |
| 1777714331 | 23.33° C | 35% | 1019.8 hPa | 0 mm | - | - | - |
| 1777712530 | 22.22° C | 39% | 1020.3 hPa | 0 mm | - | - | - |
| 1777710731 | 19.44° C | 43% | 1020.5 hPa | 0 mm | - | - | - |
| 1777708931 | 18.33° C | 48% | 1020.6 hPa | 0 mm | - | - | - |
| 1777707130 | 15.56° C | 55% | 1020.9 hPa | 0 mm | - | - | - |
| 1777705333 | 12.22° C | 64% | 1021 hPa | 0 mm | - | - | - |
| 1777703532 | 9.44° C | 77% | 1021 hPa | 0 mm | - | - | - |
| 1777701731 | 6.11° C | 87% | 1021.2 hPa | 0 mm | - | - | - |
| 1777699931 | 4.44° C | 84% | 1021.2 hPa | 0 mm | - | - | - |
| 1777698131 | 3.33° C | 81% | 1021.1 hPa | 0 mm | - | - | - |
| 1777696331 | 3.33° C | 78% | 1020.9 hPa | 0 mm | - | - | - |
| 1777694533 | 3.89° C | 77% | 1020.8 hPa | 0 mm | - | - | - |
| 1777692731 | 4.44° C | 76% | 1020.9 hPa | 0 mm | - | - | - |
| 1777690931 | 5° C | 75% | 1020.9 hPa | 0 mm | - | - | - |
| 1777689134 | 5° C | 74% | 1020.9 hPa | 0 mm | - | - | - |
| 1777687332 | 5.56° C | 72% | 1021 hPa | 0 mm | - | - | - |
| 1777685531 | 6.11° C | 69% | 1021.1 hPa | 0 mm | - | - | - |
| 1777683731 | 6.67° C | 67% | 1021.1 hPa | 0 mm | - | - | - |
| 1777681929 | 7.78° C | 65% | 1021.3 hPa | 0 mm | - | - | - |
* Rain since midnight (hover to see other rain measurements)
** Current wind speed in m/s (hover to see current wind gust speed)